Villa Cisneros, Western Sahara
Current Conditions -  °F | °C
As of 5:00 PM on Friday 24 Oct 2014 (Local Time) from GMMH Reporting Station
Clear Clear  
Wind Chill: 75°   Ceiling: Unl
Heat Index: 75°   Visibility: 6mi
Dew Point: 66°   Wind: 17mph
Humidity: 73%   Direction: 340°NNW
Pressure: 29.88"   Gusts: NA
Location:  23.7°N, 15.94°W
Report Text: GMMH 241700Z 34015KT CAVOK 24/19 Q1012 NOSIG
Loading
Personal Weather Stations






























Interactive Weather Map
Tropical Storm Tracking
New forecast layout! Learn more

10-Day Weather Forecast

Advertisements
Track Severe Weather on mobile